createdAt,value
2017-10-29T00:01:10.917Z,8.97
2017-10-29T00:03:44.793Z,7.20
2017-10-29T00:06:18.469Z,10.17
2017-10-29T00:08:52.309Z,9.90
2017-10-29T00:11:26.804Z,7.50
2017-10-29T00:14:01.238Z,4.77
2017-10-29T00:16:35.757Z,8.53
2017-10-29T00:19:09.597Z,4.70
2017-10-29T00:21:43.343Z,9.20
2017-10-29T00:24:17.014Z,6.83
2017-10-29T00:26:51.485Z,8.20
2017-10-29T00:29:25.237Z,8.93
2017-10-29T00:31:59.122Z,5.23
2017-10-29T00:34:32.943Z,11.13
2017-10-29T00:37:06.749Z,8.33
2017-10-29T00:39:41.260Z,10.67
2017-10-29T00:42:15.141Z,5.77
2017-10-29T00:44:48.926Z,7.10
2017-10-29T00:47:22.654Z,6.60
2017-10-29T00:49:57.070Z,9.27
2017-10-29T00:52:30.919Z,7.70
2017-10-29T00:55:04.563Z,6.83
2017-10-29T00:57:38.335Z,7.70
2017-10-29T01:00:12.812Z,6.53
2017-10-29T01:02:46.627Z,9.27
2017-10-29T01:05:20.433Z,7.33
2017-10-29T01:07:54.080Z,14.90
2017-10-29T01:10:27.849Z,6.40
2017-10-29T01:13:01.588Z,7.40
2017-10-29T01:15:35.413Z,10.00
2017-10-29T01:18:09.172Z,5.83
2017-10-29T01:20:42.918Z,6.83
2017-10-29T01:23:16.674Z,6.80
2017-10-29T01:25:50.277Z,8.83
2017-10-29T01:28:23.953Z,6.00
2017-10-29T01:30:57.789Z,11.43
2017-10-29T01:33:31.527Z,8.23
2017-10-29T01:36:05.267Z,7.27
2017-10-29T01:38:38.991Z,10.03
2017-10-29T01:41:12.628Z,5.70
2017-10-29T01:43:47.173Z,7.27
2017-10-29T01:46:20.863Z,5.47
2017-10-29T01:48:54.612Z,8.60
2017-10-29T01:51:28.207Z,9.17
2017-10-29T01:54:01.966Z,13.13
2017-10-29T01:56:35.772Z,10.03
2017-10-29T01:59:09.451Z,9.53
2017-10-29T02:01:43.305Z,10.30
2017-10-29T02:04:17.070Z,6.50
2017-10-29T02:06:50.653Z,5.20
2017-10-29T02:09:24.405Z,10.13
2017-10-29T02:11:58.188Z,3.70
2017-10-29T02:14:32.761Z,5.30
2017-10-29T02:17:06.409Z,5.50
2017-10-29T02:19:40.114Z,7.03
2017-10-29T02:22:14.707Z,7.60
2017-10-29T02:24:48.614Z,6.93
2017-10-29T02:27:23.159Z,10.00
2017-10-29T02:29:56.806Z,12.30
2017-10-29T02:32:31.284Z,7.00
2017-10-29T02:35:05.920Z,6.53
2017-10-29T02:37:39.864Z,8.43
2017-10-29T02:40:14.436Z,7.03
2017-10-29T02:42:48.090Z,10.03
2017-10-29T02:45:22.626Z,6.50
2017-10-29T02:47:57.191Z,8.75
2017-10-29T02:50:30.921Z,9.53
2017-10-29T02:53:04.846Z,4.87
2017-10-29T02:55:38.478Z,9.47
2017-10-29T02:58:12.259Z,4.57
2017-10-29T03:00:45.929Z,9.70
2017-10-29T03:03:19.623Z,8.25
2017-10-29T03:05:53.329Z,11.65
2017-10-29T03:08:27.028Z,5.37
2017-10-29T03:11:00.681Z,11.63
2017-10-29T03:13:35.237Z,8.18
2017-10-29T03:16:09.838Z,16.00
2017-10-29T03:18:43.592Z,13.30
2017-10-29T03:21:17.384Z,19.85
2017-10-29T03:23:51.993Z,10.15
2017-10-29T03:26:26.029Z,9.60
2017-10-29T03:28:59.702Z,10.20
2017-10-29T03:31:34.251Z,15.18
2017-10-29T03:34:08.022Z,12.20
2017-10-29T03:36:41.846Z,11.50
2017-10-29T03:39:15.637Z,18.25
2017-10-29T03:41:49.447Z,15.35
2017-10-29T03:44:23.275Z,10.32
2017-10-29T03:46:57.778Z,8.00
2017-10-29T03:49:31.573Z,18.80
2017-10-29T03:52:06.219Z,11.85
2017-10-29T03:54:39.992Z,5.15
2017-10-29T03:57:13.698Z,10.70
2017-10-29T03:59:47.553Z,8.20
2017-10-29T04:02:21.516Z,15.02
2017-10-29T04:04:55.315Z,9.85
2017-10-29T04:07:29.076Z,13.68
2017-10-29T04:10:03.655Z,14.32
2017-10-29T04:12:37.405Z,10.95
2017-10-29T04:15:11.880Z,11.63
2017-10-29T04:17:45.688Z,14.77
2017-10-29T04:20:19.395Z,14.15
2017-10-29T04:22:53.180Z,13.15
2017-10-29T04:25:27.712Z,16.58
2017-10-29T04:28:01.557Z,25.80
2017-10-29T04:30:35.946Z,31.05
2017-10-29T04:33:09.815Z,24.33
2017-10-29T04:35:43.588Z,10.07
2017-10-29T04:38:17.307Z,16.33
2017-10-29T04:40:51.098Z,16.45
2017-10-29T04:43:24.887Z,12.50
2017-10-29T04:45:58.636Z,9.75
2017-10-29T04:48:33.099Z,25.90
2017-10-29T04:51:06.797Z,12.18
2017-10-29T04:53:40.509Z,10.40
2017-10-29T04:56:14.342Z,15.88
2017-10-29T04:58:48.147Z,23.62
2017-10-29T05:01:21.891Z,20.67
2017-10-29T05:03:55.632Z,16.08
2017-10-29T05:06:30.061Z,13.50
2017-10-29T05:09:04.656Z,17.55
2017-10-29T05:11:38.449Z,21.58
2017-10-29T05:14:12.209Z,16.87
2017-10-29T05:16:46.000Z,24.75
2017-10-29T05:19:19.728Z,17.60
2017-10-29T05:21:53.573Z,23.45
2017-10-29T05:24:28.226Z,29.30
2017-10-29T05:27:02.001Z,21.17
2017-10-29T05:29:36.526Z,17.67
2017-10-29T05:32:10.185Z,25.90
2017-10-29T05:34:44.567Z,27.55
2017-10-29T05:37:18.416Z,32.78
2017-10-29T05:39:52.098Z,20.33
2017-10-29T05:42:25.933Z,27.73
2017-10-29T05:44:59.559Z,16.70
2017-10-29T05:47:33.363Z,18.67
2017-10-29T05:50:07.286Z,21.92
2017-10-29T05:52:40.945Z,25.30
2017-10-29T05:55:14.729Z,28.27
2017-10-29T05:57:48.358Z,25.40
2017-10-29T06:00:22.142Z,25.90
2017-10-29T06:02:55.778Z,24.23
2017-10-29T06:05:29.597Z,18.98
2017-10-29T06:08:03.373Z,19.25
2017-10-29T06:10:37.263Z,17.95
2017-10-29T06:13:11.171Z,23.50
2017-10-29T06:15:44.879Z,30.42
2017-10-29T06:18:18.695Z,26.00
2017-10-29T06:20:52.464Z,23.10
2017-10-29T06:23:26.191Z,21.20
2017-10-29T06:26:00.004Z,28.02
2017-10-29T06:28:33.816Z,30.70
2017-10-29T06:31:07.654Z,22.77
2017-10-29T06:33:41.529Z,20.05
2017-10-29T06:36:15.294Z,13.23
2017-10-29T06:38:49.153Z,21.45
2017-10-29T06:41:23.019Z,17.90
2017-10-29T06:43:56.787Z,26.12
2017-10-29T06:46:30.549Z,12.50
2017-10-29T06:49:04.340Z,24.17
2017-10-29T06:51:37.981Z,20.40
2017-10-29T06:54:11.641Z,19.95
2017-10-29T06:56:45.476Z,20.23
2017-10-29T06:59:19.217Z,23.15
2017-10-29T07:01:52.874Z,21.65
2017-10-29T07:04:26.622Z,24.27
2017-10-29T07:07:00.367Z,21.90
2017-10-29T07:09:34.088Z,17.62
2017-10-29T07:12:07.773Z,21.50
2017-10-29T07:14:41.490Z,21.00
2017-10-29T07:17:15.983Z,26.15
2017-10-29T07:19:49.858Z,23.67
2017-10-29T07:22:23.597Z,19.67
2017-10-29T07:24:57.350Z,20.37
2017-10-29T07:27:31.111Z,22.85
2017-10-29T07:30:04.773Z,18.80
2017-10-29T07:32:38.496Z,19.70
2017-10-29T07:35:12.209Z,27.52
2017-10-29T07:37:45.917Z,25.12
2017-10-29T07:40:19.595Z,16.20
2017-10-29T07:42:53.458Z,20.80
2017-10-29T07:45:27.229Z,21.50
2017-10-29T07:48:00.932Z,24.30
2017-10-29T07:50:34.775Z,22.33
2017-10-29T07:53:08.484Z,25.65
2017-10-29T07:55:42.179Z,22.15
2017-10-29T07:58:15.850Z,24.45
2017-10-29T08:00:49.568Z,16.83
2017-10-29T08:03:23.246Z,22.17
2017-10-29T08:05:56.977Z,24.25
2017-10-29T08:08:30.756Z,27.55
2017-10-29T08:11:05.292Z,26.02
2017-10-29T08:13:39.113Z,26.65
2017-10-29T08:16:12.802Z,31.95
2017-10-29T08:18:46.520Z,24.10
2017-10-29T08:21:21.150Z,30.30
2017-10-29T08:23:54.807Z,28.30
2017-10-29T08:26:28.686Z,31.20
2017-10-29T08:29:02.505Z,39.95
2017-10-29T08:31:36.187Z,39.63
2017-10-29T08:34:09.985Z,27.30
2017-10-29T08:36:44.389Z,31.85
2017-10-29T08:39:19.630Z,35.65
2017-10-29T08:41:53.309Z,28.60
2017-10-29T08:44:27.002Z,18.60
2017-10-29T08:47:00.757Z,22.45
2017-10-29T08:49:34.595Z,26.00
2017-10-29T08:52:08.978Z,31.23
2017-10-29T08:54:43.574Z,28.00
2017-10-29T08:57:17.662Z,16.10
2017-10-29T08:59:51.434Z,25.20
2017-10-29T09:02:26.017Z,21.25
2017-10-29T09:04:59.738Z,22.77
2017-10-29T09:07:34.713Z,24.52
2017-10-29T09:10:08.392Z,19.60
2017-10-29T09:12:42.067Z,24.45
2017-10-29T09:15:15.731Z,15.43
2017-10-29T09:17:49.320Z,16.05
2017-10-29T09:20:23.018Z,11.85
2017-10-29T09:22:56.830Z,10.80
2017-10-29T09:25:30.549Z,13.18
2017-10-29T09:28:04.335Z,14.57
2017-10-29T09:30:38.063Z,9.90
2017-10-29T09:33:11.933Z,14.87
2017-10-29T09:35:46.301Z,23.50
2017-10-29T09:38:20.054Z,14.35
2017-10-29T09:40:53.850Z,14.25
2017-10-29T09:43:28.233Z,36.93
2017-10-29T09:46:02.084Z,20.62
2017-10-29T09:48:35.786Z,10.90
2017-10-29T09:51:09.432Z,16.60
2017-10-29T09:53:43.093Z,20.73
2017-10-29T09:56:16.889Z,18.27
2017-10-29T09:58:51.333Z,23.67
2017-10-29T10:01:24.997Z,17.37
2017-10-29T10:03:58.658Z,20.48
2017-10-29T10:06:32.522Z,17.92
2017-10-29T10:09:06.205Z,16.15
2017-10-29T10:11:39.760Z,18.93
2017-10-29T10:14:13.626Z,19.30
2017-10-29T10:16:47.440Z,12.53
2017-10-29T10:19:21.254Z,13.05
2017-10-29T10:21:55.091Z,14.82
2017-10-29T10:24:28.710Z,20.67
2017-10-29T10:27:02.570Z,14.50
2017-10-29T10:29:37.176Z,12.40
2017-10-29T10:32:10.959Z,18.80
2017-10-29T10:34:44.592Z,15.30
2017-10-29T10:37:18.298Z,15.87
2017-10-29T10:39:51.877Z,14.10
2017-10-29T10:42:25.611Z,15.27
2017-10-29T10:44:59.382Z,12.27
2017-10-29T10:47:34.002Z,18.60
2017-10-29T10:50:07.745Z,20.80
2017-10-29T10:52:41.494Z,28.63
2017-10-29T10:55:15.316Z,21.10
2017-10-29T10:57:49.058Z,18.30
2017-10-29T11:00:22.870Z,13.10
2017-10-29T11:02:56.668Z,19.97
2017-10-29T11:05:30.414Z,9.10
2017-10-29T11:08:04.008Z,14.43
2017-10-29T11:10:37.788Z,18.23
2017-10-29T11:13:11.546Z,15.23
2017-10-29T11:15:45.181Z,18.27
2017-10-29T11:18:18.964Z,16.43
2017-10-29T11:20:52.662Z,25.03
2017-10-29T11:23:26.466Z,14.10
2017-10-29T11:26:00.063Z,12.30
2017-10-29T11:28:33.901Z,21.23
2017-10-29T11:31:07.602Z,22.33
2017-10-29T11:33:42.109Z,18.83
2017-10-29T11:36:16.118Z,15.00
2017-10-29T11:38:49.805Z,12.47
2017-10-29T11:41:23.555Z,12.83
2017-10-29T11:43:57.377Z,16.40
2017-10-29T11:46:31.989Z,15.53
2017-10-29T11:49:05.717Z,20.40
2017-10-29T11:51:39.482Z,15.87
2017-10-29T11:54:13.321Z,16.93
2017-10-29T11:56:47.061Z,14.43
2017-10-29T11:59:20.794Z,11.63
2017-10-29T12:01:55.322Z,14.57
2017-10-29T12:04:29.049Z,17.93
2017-10-29T12:07:02.816Z,18.67
2017-10-29T12:09:36.610Z,21.13
2017-10-29T12:12:10.463Z,21.50
2017-10-29T12:14:45.025Z,16.57
2017-10-29T12:17:18.839Z,21.00
2017-10-29T12:19:53.365Z,16.90
2017-10-29T12:22:27.179Z,15.80
2017-10-29T12:25:00.890Z,18.33
2017-10-29T12:27:34.765Z,12.07
2017-10-29T12:30:08.560Z,20.60
2017-10-29T12:32:42.263Z,20.87
2017-10-29T12:35:16.097Z,12.83
2017-10-29T12:37:49.953Z,7.93
2017-10-29T12:40:23.615Z,11.93
2017-10-29T12:42:57.309Z,10.10
2017-10-29T12:45:31.083Z,16.40
2017-10-29T12:48:05.538Z,16.80
2017-10-29T12:50:39.276Z,13.10
2017-10-29T12:53:13.909Z,18.23
2017-10-29T12:55:48.389Z,11.93
2017-10-29T12:58:22.136Z,17.70
2017-10-29T13:00:55.926Z,23.73
2017-10-29T13:03:29.740Z,12.73
2017-10-29T13:06:04.201Z,16.43
2017-10-29T13:08:37.972Z,8.37
2017-10-29T13:11:11.721Z,8.43
2017-10-29T13:13:46.299Z,9.07
2017-10-29T13:16:19.894Z,10.20
2017-10-29T13:18:53.957Z,8.70
2017-10-29T13:21:27.764Z,10.95
2017-10-29T13:24:01.688Z,6.35
2017-10-29T13:26:35.289Z,6.70
2017-10-29T13:29:09.833Z,6.30
2017-10-29T13:31:43.642Z,5.50
2017-10-29T13:34:18.282Z,6.25
2017-10-29T13:36:52.094Z,8.20
2017-10-29T13:39:25.901Z,10.70
2017-10-29T13:41:59.517Z,6.37
2017-10-29T13:44:33.161Z,13.93
2017-10-29T13:47:07.694Z,12.98
2017-10-29T13:49:41.549Z,5.60
2017-10-29T13:52:15.161Z,3.42
2017-10-29T13:54:48.810Z,8.23
2017-10-29T13:57:22.601Z,5.62
2017-10-29T13:59:56.388Z,8.55
2017-10-29T14:02:30.222Z,8.45
2017-10-29T14:05:03.904Z,7.30
2017-10-29T14:07:37.754Z,6.62
2017-10-29T14:10:11.454Z,15.25
2017-10-29T14:12:45.229Z,9.30
2017-10-29T14:15:19.768Z,8.40
2017-10-29T14:17:53.477Z,8.32
2017-10-29T14:20:27.079Z,20.95
2017-10-29T14:23:00.780Z,15.65
2017-10-29T14:25:35.549Z,12.63
2017-10-29T14:28:09.350Z,13.62
2017-10-29T14:30:43.050Z,9.32
2017-10-29T14:33:17.590Z,5.25
2017-10-29T14:35:51.936Z,13.45
2017-10-29T14:38:25.666Z,7.07
2017-10-29T14:41:00.121Z,10.35
2017-10-29T14:43:33.933Z,3.90
2017-10-29T14:46:07.561Z,5.43
2017-10-29T14:48:41.338Z,6.90
2017-10-29T14:51:15.141Z,7.22
2017-10-29T14:53:48.809Z,8.85
2017-10-29T14:56:22.621Z,9.13
2017-10-29T14:58:56.466Z,8.30
2017-10-29T15:01:31.072Z,11.88
2017-10-29T15:04:04.753Z,11.32
2017-10-29T15:06:38.562Z,9.80
2017-10-29T15:09:12.423Z,13.95
2017-10-29T15:11:46.315Z,16.50
2017-10-29T15:14:20.110Z,10.15
2017-10-29T15:16:54.001Z,11.57
2017-10-29T15:19:27.797Z,10.48
2017-10-29T15:22:01.593Z,9.93
2017-10-29T15:24:35.482Z,13.77
2017-10-29T15:27:09.477Z,7.37
2017-10-29T15:29:43.842Z,8.98
2017-10-29T15:32:17.750Z,14.15
2017-10-29T15:34:52.381Z,13.75
2017-10-29T15:37:26.090Z,20.67
2017-10-29T15:39:59.800Z,6.95
2017-10-29T15:42:33.615Z,7.07
2017-10-29T15:45:08.217Z,7.43
2017-10-29T15:47:41.854Z,10.60
2017-10-29T15:50:16.405Z,6.80
2017-10-29T15:52:50.321Z,13.55
2017-10-29T15:55:24.128Z,9.95
2017-10-29T15:57:58.211Z,10.38
2017-10-29T16:00:32.814Z,11.27
2017-10-29T16:03:07.452Z,23.83
2017-10-29T16:05:41.374Z,17.62
2017-10-29T16:08:15.153Z,18.10
2017-10-29T16:10:49.862Z,16.65
2017-10-29T16:13:23.720Z,22.75
2017-10-29T16:15:57.358Z,12.43
2017-10-29T16:18:31.156Z,15.80
2017-10-29T16:21:05.068Z,15.23
2017-10-29T16:23:40.420Z,25.70
2017-10-29T16:26:14.044Z,16.65
2017-10-29T16:28:47.773Z,17.52
2017-10-29T16:31:21.630Z,15.93
2017-10-29T16:33:55.424Z,14.43
2017-10-29T16:36:29.212Z,17.48
2017-10-29T16:39:03.861Z,20.17
2017-10-29T16:41:37.986Z,26.67
2017-10-29T16:44:11.697Z,19.77
2017-10-29T16:46:45.412Z,22.25
2017-10-29T16:49:19.996Z,15.13
2017-10-29T16:51:53.816Z,15.90
2017-10-29T16:54:28.410Z,19.23
2017-10-29T16:57:02.254Z,18.42
2017-10-29T16:59:36.750Z,29.10
2017-10-29T17:02:10.448Z,17.75
2017-10-29T17:04:44.239Z,14.57
2017-10-29T17:07:18.021Z,25.12
2017-10-29T17:09:51.853Z,17.17
2017-10-29T17:12:25.553Z,12.52
2017-10-29T17:14:59.291Z,19.42
2017-10-29T17:17:33.057Z,18.12
2017-10-29T17:20:06.893Z,19.25
2017-10-29T17:22:40.687Z,22.20
2017-10-29T17:25:14.333Z,14.60
2017-10-29T17:27:48.102Z,18.62
2017-10-29T17:30:21.785Z,16.08
2017-10-29T17:32:56.297Z,11.52
2017-10-29T17:35:30.096Z,19.75
2017-10-29T17:38:04.561Z,19.17
2017-10-29T17:40:38.330Z,14.75
2017-10-29T17:43:12.106Z,20.52
2017-10-29T17:45:45.878Z,15.55
2017-10-29T17:48:19.687Z,16.65
2017-10-29T17:50:53.417Z,17.85
2017-10-29T17:53:27.253Z,11.15
2017-10-29T17:56:01.018Z,15.93
2017-10-29T17:58:34.837Z,13.45
2017-10-29T18:01:08.582Z,14.48
2017-10-29T18:03:42.441Z,16.20
2017-10-29T18:06:16.084Z,18.15
2017-10-29T18:08:49.921Z,21.80
2017-10-29T18:11:23.751Z,17.48
2017-10-29T18:13:58.219Z,8.95
2017-10-29T18:16:31.975Z,15.40
2017-10-29T18:19:05.762Z,19.90
2017-10-29T18:21:39.574Z,26.70
2017-10-29T18:24:13.384Z,17.55
2017-10-29T18:26:47.142Z,11.98
2017-10-29T18:29:20.922Z,19.98
2017-10-29T18:31:54.730Z,18.05
2017-10-29T18:34:28.547Z,21.77
2017-10-29T18:37:02.286Z,14.43
2017-10-29T18:39:36.099Z,16.35
2017-10-29T18:42:09.886Z,11.45
2017-10-29T18:44:43.626Z,20.60
2017-10-29T18:47:17.441Z,20.27
2017-10-29T18:49:51.935Z,24.00
2017-10-29T18:52:25.606Z,20.12
2017-10-29T18:55:00.218Z,15.93
2017-10-29T18:57:34.687Z,21.95
2017-10-29T19:00:08.478Z,21.55
2017-10-29T19:02:42.289Z,22.23
2017-10-29T19:05:16.130Z,16.98
2017-10-29T19:07:49.907Z,21.52
2017-10-29T19:10:23.694Z,19.95
2017-10-29T19:12:57.543Z,19.95
2017-10-29T19:15:31.317Z,12.88
2017-10-29T19:18:05.185Z,16.67
2017-10-29T19:20:39.049Z,23.85
2017-10-29T19:23:13.629Z,18.45
2017-10-29T19:25:47.393Z,19.58
2017-10-29T19:28:21.156Z,11.93
2017-10-29T19:30:54.895Z,18.05
2017-10-29T19:33:28.730Z,15.32
2017-10-29T19:36:03.278Z,16.40
2017-10-29T19:38:36.890Z,13.93
2017-10-29T19:41:10.706Z,16.02
2017-10-29T19:43:44.505Z,15.25
2017-10-29T19:46:18.344Z,24.02
2017-10-29T19:48:52.121Z,14.73
2017-10-29T19:51:25.897Z,9.45
2017-10-29T19:53:59.661Z,20.30
2017-10-29T19:56:33.390Z,13.02
2017-10-29T19:59:07.217Z,16.90
2017-10-29T20:01:40.933Z,17.27
2017-10-29T20:04:14.727Z,17.33
2017-10-29T20:06:48.551Z,20.42
2017-10-29T20:09:22.401Z,16.55
2017-10-29T20:11:56.342Z,20.35
2017-10-29T20:14:30.119Z,13.93
2017-10-29T20:17:03.893Z,15.70
2017-10-29T20:19:38.434Z,27.95
2017-10-29T20:22:12.243Z,10.52
2017-10-29T20:24:45.970Z,16.75
2017-10-29T20:27:19.764Z,20.85
2017-10-29T20:29:53.469Z,13.68
2017-10-29T20:32:27.181Z,17.98
2017-10-29T20:35:00.956Z,20.50
2017-10-29T20:37:34.726Z,14.25
2017-10-29T20:40:08.531Z,12.65
2017-10-29T20:42:42.266Z,8.93
2017-10-29T20:45:15.853Z,14.23
2017-10-29T20:47:49.670Z,19.15
2017-10-29T20:50:23.253Z,18.77
2017-10-29T20:52:56.929Z,21.90
2017-10-29T20:55:31.510Z,16.20
2017-10-29T20:58:05.280Z,15.55
2017-10-29T21:00:39.097Z,12.07
2017-10-29T21:03:12.895Z,15.43
2017-10-29T21:05:47.510Z,7.68
2017-10-29T21:08:21.317Z,19.15
2017-10-29T21:10:55.170Z,8.57
2017-10-29T21:13:28.971Z,12.48
2017-10-29T21:16:02.690Z,12.00
2017-10-29T21:18:37.302Z,18.85
2017-10-29T21:21:11.142Z,17.77
2017-10-29T21:23:46.543Z,13.80
2017-10-29T21:26:20.312Z,12.48
2017-10-29T21:28:55.114Z,8.15
2017-10-29T21:31:28.962Z,15.27
2017-10-29T21:34:03.462Z,13.68
2017-10-29T21:36:37.190Z,12.13
2017-10-29T21:39:10.941Z,8.70
2017-10-29T21:41:44.666Z,14.45
2017-10-29T21:44:18.457Z,14.15
2017-10-29T21:46:52.249Z,18.40
2017-10-29T21:49:25.922Z,7.37
2017-10-29T21:52:00.538Z,14.25
2017-10-29T21:54:34.155Z,10.43
2017-10-29T21:57:07.951Z,15.40
2017-10-29T21:59:41.654Z,8.38
2017-10-29T22:02:16.267Z,6.82
2017-10-29T22:04:50.043Z,15.52
2017-10-29T22:07:23.701Z,15.82
2017-10-29T22:09:57.506Z,9.10
2017-10-29T22:12:31.325Z,10.25
2017-10-29T22:15:04.886Z,9.35
2017-10-29T22:17:38.642Z,15.95
2017-10-29T22:20:12.513Z,18.40
2017-10-29T22:22:46.310Z,9.27
2017-10-29T22:25:20.923Z,12.60
2017-10-29T22:27:54.645Z,12.77
2017-10-29T22:30:28.430Z,11.88
2017-10-29T22:33:02.039Z,10.55
2017-10-29T22:35:35.868Z,14.15
2017-10-29T22:38:09.724Z,12.63
2017-10-29T22:40:43.826Z,13.35
2017-10-29T22:43:18.232Z,9.45
2017-10-29T22:45:52.600Z,15.70
2017-10-29T22:48:26.441Z,14.30
2017-10-29T22:51:00.930Z,6.32
2017-10-29T22:53:34.623Z,9.45
2017-10-29T22:56:08.205Z,13.68
2017-10-29T22:58:41.967Z,17.20
2017-10-29T23:01:15.735Z,10.73
2017-10-29T23:03:49.350Z,8.05
2017-10-29T23:06:34.891Z,17.25
2017-10-29T23:09:20.712Z,16.15
2017-10-29T23:11:55.127Z,9.93
2017-10-29T23:14:28.998Z,15.80
2017-10-29T23:17:02.768Z,15.80
2017-10-29T23:19:36.501Z,11.43
2017-10-29T23:22:11.053Z,12.13
2017-10-29T23:24:44.899Z,18.50
2017-10-29T23:27:18.488Z,10.43
2017-10-29T23:29:52.287Z,14.40
2017-10-29T23:32:26.037Z,11.27
2017-10-29T23:35:04.128Z,14.82
2017-10-29T23:37:37.782Z,15.25
2017-10-29T23:40:12.238Z,15.23
2017-10-29T23:42:46.954Z,14.20
2017-10-29T23:45:20.578Z,12.37
2017-10-29T23:47:55.155Z,25.60
2017-10-29T23:50:28.897Z,9.63
2017-10-29T23:53:02.654Z,8.30
2017-10-29T23:55:36.465Z,15.48
2017-10-29T23:58:11.001Z,11.30
